createdAt,value
2018-04-17T00:01:56.517Z,1.77
2018-04-17T00:04:24.122Z,1.80
2018-04-17T00:06:51.784Z,2.30
2018-04-17T00:09:19.415Z,2.07
2018-04-17T00:11:47.120Z,1.80
2018-04-17T00:14:14.732Z,2.00
2018-04-17T00:16:42.395Z,1.90
2018-04-17T00:19:10.059Z,2.20
2018-04-17T00:21:37.792Z,2.10
2018-04-17T00:24:05.439Z,2.20
2018-04-17T00:26:33.079Z,1.97
2018-04-17T00:29:00.739Z,1.40
2018-04-17T00:31:28.386Z,2.33
2018-04-17T00:33:56.020Z,2.37
2018-04-17T00:36:23.735Z,1.67
2018-04-17T00:38:51.351Z,1.57
2018-04-17T00:41:19.068Z,1.97
2018-04-17T00:43:46.666Z,2.13
2018-04-17T00:46:14.331Z,1.80
2018-04-17T00:48:41.968Z,2.37
2018-04-17T00:51:09.663Z,1.77
2018-04-17T00:53:49.219Z,1.67
2018-04-17T00:56:16.880Z,1.90
2018-04-17T00:58:44.527Z,1.87
2018-04-17T01:01:12.207Z,1.80
2018-04-17T01:03:39.822Z,2.70
2018-04-17T01:06:07.446Z,1.60
2018-04-17T01:08:35.113Z,2.10
2018-04-17T01:11:02.736Z,2.17
2018-04-17T01:13:30.396Z,1.83
2018-04-17T01:15:58.007Z,1.90
2018-04-17T01:18:25.665Z,1.80
2018-04-17T01:20:53.295Z,1.93
2018-04-17T01:23:20.949Z,2.20
2018-04-17T01:25:48.578Z,2.20
2018-04-17T01:28:16.257Z,2.17
2018-04-17T01:30:43.883Z,1.73
2018-04-17T01:33:11.529Z,1.70
2018-04-17T01:35:39.186Z,2.17
2018-04-17T01:38:06.837Z,2.10
2018-04-17T01:40:34.459Z,2.23
2018-04-17T01:43:02.119Z,2.43
2018-04-17T01:45:29.741Z,2.03
2018-04-17T01:47:57.407Z,2.10
2018-04-17T01:50:25.020Z,1.87
2018-04-17T01:52:52.671Z,1.80
2018-04-17T01:55:20.321Z,1.90
2018-04-17T01:57:47.971Z,2.23
2018-04-17T02:00:15.592Z,2.57
2018-04-17T02:02:43.269Z,2.30
2018-04-17T02:05:10.904Z,1.80
2018-04-17T02:07:38.548Z,1.80
2018-04-17T02:10:06.197Z,1.90
2018-04-17T02:12:33.839Z,2.00
2018-04-17T02:15:01.479Z,1.63
2018-04-17T02:17:29.135Z,1.87
2018-04-17T02:19:56.774Z,2.00
2018-04-17T02:22:24.421Z,2.20
2018-04-17T02:24:52.048Z,2.17
2018-04-17T02:27:19.703Z,1.83
2018-04-17T02:29:47.322Z,2.60
2018-04-17T02:32:14.985Z,1.80
2018-04-17T02:34:42.616Z,1.90
2018-04-17T02:37:10.290Z,2.23
2018-04-17T02:39:37.905Z,2.93
2018-04-17T02:42:05.565Z,2.40
2018-04-17T02:44:33.197Z,2.67
2018-04-17T02:47:00.931Z,1.97
2018-04-17T02:49:28.562Z,2.30
2018-04-17T02:51:56.217Z,1.63
2018-04-17T02:54:23.851Z,2.07
2018-04-17T02:56:51.559Z,2.20
2018-04-17T02:59:19.216Z,2.40
2018-04-17T03:01:46.873Z,2.20
2018-04-17T03:04:14.500Z,2.00
2018-04-17T03:06:42.171Z,1.87
2018-04-17T03:09:09.780Z,2.40
2018-04-17T03:11:37.390Z,1.97
2018-04-17T03:14:05.055Z,1.60
2018-04-17T03:16:32.667Z,2.00
2018-04-17T03:19:00.359Z,2.07
2018-04-17T03:21:27.992Z,3.10
2018-04-17T03:23:55.674Z,2.10
2018-04-17T03:26:23.291Z,2.20
2018-04-17T03:28:50.976Z,2.00
2018-04-17T03:31:18.590Z,2.37
2018-04-17T03:33:46.304Z,2.20
2018-04-17T03:36:13.915Z,2.10
2018-04-17T03:38:41.572Z,2.00
2018-04-17T03:41:09.191Z,2.30
2018-04-17T03:43:36.838Z,2.00
2018-04-17T03:46:04.509Z,1.80
2018-04-17T03:48:32.178Z,2.53
2018-04-17T03:50:59.798Z,2.37
2018-04-17T03:53:27.518Z,2.50
2018-04-17T03:55:55.118Z,2.50
2018-04-17T03:58:22.801Z,1.90
2018-04-17T04:00:50.408Z,2.27
2018-04-17T04:03:18.069Z,1.93
2018-04-17T04:05:45.688Z,1.87
2018-04-17T04:08:13.356Z,2.30
2018-04-17T04:10:40.978Z,2.30
2018-04-17T04:13:08.638Z,1.70
2018-04-17T04:15:36.269Z,2.70
2018-04-17T04:18:15.679Z,2.30
2018-04-17T04:20:54.959Z,3.00
2018-04-17T04:23:34.506Z,1.60
2018-04-17T04:29:08.620Z,1.97
2018-04-17T04:31:36.287Z,2.17
2018-04-17T04:34:03.961Z,2.40
2018-04-17T04:36:31.564Z,2.67
2018-04-17T04:38:59.228Z,2.00
2018-04-17T04:41:26.847Z,2.57
2018-04-17T04:43:54.651Z,2.83
2018-04-17T04:46:22.259Z,2.77
2018-04-17T04:48:49.918Z,2.60
2018-04-17T04:51:17.651Z,2.50
2018-04-17T04:53:45.301Z,2.90
2018-04-17T04:56:12.922Z,2.40
2018-04-17T04:58:40.596Z,2.70
2018-04-17T05:01:08.227Z,2.30
2018-04-17T05:03:35.905Z,2.23
2018-04-17T05:06:03.517Z,2.50
2018-04-17T05:08:31.176Z,2.27
2018-04-17T05:10:58.803Z,2.60
2018-04-17T05:13:26.479Z,2.43
2018-04-17T05:15:54.120Z,2.37
2018-04-17T05:18:21.809Z,3.00
2018-04-17T05:20:49.443Z,2.83
2018-04-17T05:23:17.112Z,2.33
2018-04-17T05:25:44.755Z,2.47
2018-04-17T05:28:12.411Z,2.73
2018-04-17T05:30:40.019Z,2.83
2018-04-17T05:33:07.669Z,3.10
2018-04-17T05:35:35.286Z,1.80
2018-04-17T05:38:02.959Z,2.07
2018-04-17T05:40:30.639Z,2.83
2018-04-17T05:42:58.293Z,2.30
2018-04-17T05:45:25.928Z,3.40
2018-04-17T05:47:53.605Z,3.17
2018-04-17T05:50:21.215Z,2.90
2018-04-17T05:52:48.897Z,2.40
2018-04-17T05:55:16.510Z,2.37
2018-04-17T05:57:44.171Z,2.60
2018-04-17T06:00:11.784Z,2.90
2018-04-17T06:02:39.411Z,2.70
2018-04-17T06:05:07.135Z,2.60
2018-04-17T06:07:34.739Z,2.60
2018-04-17T06:10:02.406Z,2.57
2018-04-17T06:12:30.035Z,2.70
2018-04-17T06:14:57.690Z,2.70
2018-04-17T06:17:25.329Z,2.60
2018-04-17T06:19:53.001Z,2.23
2018-04-17T06:22:20.611Z,2.20
2018-04-17T06:24:48.328Z,3.20
2018-04-17T06:27:16.028Z,2.43
2018-04-17T06:29:43.703Z,2.40
2018-04-17T06:32:11.310Z,2.97
2018-04-17T06:34:38.959Z,2.60
2018-04-17T06:37:06.643Z,2.10
2018-04-17T06:39:34.315Z,2.20
2018-04-17T06:42:02.001Z,2.30
2018-04-17T06:44:29.650Z,2.43
2018-04-17T06:46:57.280Z,2.83
2018-04-17T06:49:25.003Z,2.90
2018-04-17T06:51:52.631Z,2.53
2018-04-17T06:54:20.294Z,2.30
2018-04-17T06:56:47.908Z,2.67
2018-04-17T06:59:15.569Z,2.67
2018-04-17T07:01:43.190Z,2.80
2018-04-17T07:04:10.860Z,2.10
2018-04-17T07:06:38.478Z,2.83
2018-04-17T07:09:07.067Z,2.53
2018-04-17T07:11:34.724Z,2.50
2018-04-17T07:14:02.388Z,3.00
2018-04-17T07:16:29.996Z,2.77
2018-04-17T07:18:57.659Z,2.80
2018-04-17T07:21:25.288Z,2.40
2018-04-17T07:23:52.954Z,2.80
2018-04-17T07:26:20.569Z,2.60
2018-04-17T07:28:48.236Z,1.77
2018-04-17T07:31:15.853Z,2.67
2018-04-17T07:33:43.510Z,2.50
2018-04-17T07:36:11.122Z,2.60
2018-04-17T07:38:38.789Z,2.53
2018-04-17T07:41:06.467Z,2.50
2018-04-17T07:43:34.122Z,3.30
2018-04-17T07:46:01.751Z,2.53
2018-04-17T07:48:41.343Z,2.60
2018-04-17T07:51:08.948Z,2.50
2018-04-17T07:53:36.611Z,2.20
2018-04-17T07:56:04.219Z,2.23
2018-04-17T07:58:31.951Z,2.37
2018-04-17T08:00:59.572Z,2.50
2018-04-17T08:03:27.227Z,2.50
2018-04-17T08:05:54.842Z,2.90
2018-04-17T08:08:22.467Z,2.57
2018-04-17T08:10:50.114Z,2.60
2018-04-17T08:13:17.753Z,3.10
2018-04-17T08:15:45.404Z,3.17
2018-04-17T08:18:13.023Z,2.93
2018-04-17T08:20:40.670Z,3.83
2018-04-17T08:23:08.308Z,3.80
2018-04-17T08:25:35.959Z,3.30
2018-04-17T08:28:03.566Z,3.70
2018-04-17T08:30:31.223Z,3.60
2018-04-17T08:32:58.845Z,4.20
2018-04-17T08:35:26.494Z,3.87
2018-04-17T08:37:54.102Z,4.30
2018-04-17T08:40:21.758Z,4.20
2018-04-17T08:42:49.392Z,4.73
2018-04-17T08:45:17.049Z,5.80
2018-04-17T08:47:44.659Z,5.30
2018-04-17T08:50:12.302Z,4.97
2018-04-17T08:52:39.925Z,4.90
2018-04-17T08:55:07.611Z,5.40
2018-04-17T08:57:35.235Z,5.50
2018-04-17T09:00:02.903Z,6.53
2018-04-17T09:02:30.508Z,6.07
2018-04-17T09:04:58.171Z,6.30
2018-04-17T09:07:25.801Z,5.10
2018-04-17T09:09:53.444Z,7.10
2018-04-17T09:12:21.121Z,5.93
2018-04-17T09:14:48.766Z,5.40
2018-04-17T09:17:16.380Z,6.67
2018-04-17T09:19:44.040Z,6.97
2018-04-17T09:22:11.652Z,7.10
2018-04-17T09:24:39.298Z,6.73
2018-04-17T09:27:06.935Z,7.20
2018-04-17T09:29:34.591Z,8.27
2018-04-17T09:32:02.237Z,7.37
2018-04-17T09:34:29.906Z,8.47
2018-04-17T09:36:57.572Z,6.90
2018-04-17T09:39:25.269Z,7.17
2018-04-17T09:41:52.910Z,8.57
2018-04-17T09:44:20.582Z,9.37
2018-04-17T09:46:48.207Z,7.10
2018-04-17T09:49:15.864Z,7.60
2018-04-17T09:51:43.482Z,6.80
2018-04-17T09:54:11.140Z,6.63
2018-04-17T09:56:38.767Z,6.83
2018-04-17T09:59:06.439Z,6.20
2018-04-17T10:01:34.051Z,5.60
2018-04-17T10:04:01.701Z,5.70
2018-04-17T10:06:29.306Z,6.63
2018-04-17T10:08:57.008Z,6.53
2018-04-17T10:11:24.644Z,6.57
2018-04-17T10:13:52.252Z,6.20
2018-04-17T10:16:19.914Z,5.73
2018-04-17T10:18:47.542Z,5.87
2018-04-17T10:21:15.182Z,5.90
2018-04-17T10:23:42.803Z,6.00
2018-04-17T10:26:10.462Z,6.80
2018-04-17T10:28:38.122Z,7.40
2018-04-17T10:31:05.783Z,6.50
2018-04-17T10:33:33.401Z,6.47
2018-04-17T10:36:01.059Z,5.13
2018-04-17T10:38:28.698Z,4.40
2018-04-17T10:40:56.369Z,5.40
2018-04-17T10:43:23.979Z,3.80
2018-04-17T10:45:51.628Z,3.73
2018-04-17T10:48:19.275Z,4.20
2018-04-17T10:50:46.951Z,4.03
2018-04-17T10:53:14.561Z,4.00
2018-04-17T10:55:42.246Z,3.47
2018-04-17T10:58:09.930Z,3.27
2018-04-17T11:00:37.609Z,2.90
2018-04-17T11:03:05.245Z,2.93
2018-04-17T11:05:32.894Z,3.67
2018-04-17T11:08:00.516Z,3.27
2018-04-17T11:10:28.237Z,3.20
2018-04-17T11:12:55.873Z,3.00
2018-04-17T11:15:23.554Z,1.80
2018-04-17T11:17:51.186Z,2.50
2018-04-17T11:20:18.831Z,2.37
2018-04-17T11:22:46.450Z,2.13
2018-04-17T11:25:14.159Z,1.97
2018-04-17T11:27:41.810Z,2.10
2018-04-17T11:30:09.501Z,2.53
2018-04-17T11:32:37.144Z,2.13
2018-04-17T11:35:04.799Z,2.57
2018-04-17T11:37:32.433Z,1.97
2018-04-17T11:40:00.083Z,2.70
2018-04-17T11:42:27.707Z,2.63
2018-04-17T11:44:55.380Z,2.50
2018-04-17T11:47:23.002Z,2.23
2018-04-17T11:49:50.642Z,2.10
2018-04-17T11:52:18.268Z,2.40
2018-04-17T11:54:45.911Z,2.50
2018-04-17T11:57:13.548Z,2.40
2018-04-17T11:59:41.240Z,1.80
2018-04-17T12:02:08.871Z,2.10
2018-04-17T12:04:36.538Z,1.63
2018-04-17T12:07:04.197Z,1.97
2018-04-17T12:09:31.838Z,1.27
2018-04-17T12:11:59.451Z,2.53
2018-04-17T12:14:27.115Z,1.50
2018-04-17T12:16:54.723Z,1.47
2018-04-17T12:19:22.343Z,1.60
2018-04-17T12:21:49.999Z,1.63
2018-04-17T12:24:17.637Z,1.20
2018-04-17T12:26:45.291Z,1.20
2018-04-17T12:29:12.912Z,1.40
2018-04-17T12:31:40.599Z,1.00
2018-04-17T12:34:08.221Z,1.60
2018-04-17T12:36:35.877Z,1.23
2018-04-17T12:39:03.603Z,1.30
2018-04-17T12:41:31.293Z,1.07
2018-04-17T12:43:58.912Z,1.07
2018-04-17T12:46:26.567Z,0.80
2018-04-17T12:48:54.208Z,1.27
2018-04-17T12:51:21.893Z,1.40
2018-04-17T12:53:49.516Z,1.30
2018-04-17T12:56:17.192Z,1.43
2018-04-17T12:58:44.838Z,1.83
2018-04-17T13:01:12.520Z,1.50
2018-04-17T13:03:40.133Z,1.27
2018-04-17T13:06:07.788Z,1.03
2018-04-17T13:08:35.407Z,1.40
2018-04-17T13:11:03.067Z,1.10
2018-04-17T13:13:30.701Z,1.20
2018-04-17T13:15:58.361Z,1.20
2018-04-17T13:18:25.966Z,1.23
2018-04-17T13:20:53.628Z,1.00
2018-04-17T13:23:21.243Z,1.23
2018-04-17T13:25:48.891Z,1.30
2018-04-17T13:28:16.506Z,0.80
2018-04-17T13:30:44.170Z,1.17
2018-04-17T13:33:11.790Z,1.53
2018-04-17T13:35:39.440Z,1.17
2018-04-17T13:38:07.077Z,1.23
2018-04-17T13:40:34.734Z,1.07
2018-04-17T13:43:02.355Z,1.10
2018-04-17T13:45:30.010Z,1.07
2018-04-17T13:47:57.635Z,1.30
2018-04-17T13:50:25.293Z,1.40
2018-04-17T13:52:52.942Z,1.03
2018-04-17T13:55:20.618Z,1.00
2018-04-17T13:57:48.239Z,1.37
2018-04-17T14:00:15.919Z,1.30
2018-04-17T14:02:43.582Z,1.10
2018-04-17T14:05:11.239Z,1.10
2018-04-17T14:07:38.862Z,0.70
2018-04-17T14:10:06.527Z,1.17
2018-04-17T14:12:34.161Z,1.10
2018-04-17T14:15:01.855Z,1.10
2018-04-17T14:17:29.514Z,1.10
2018-04-17T14:19:57.189Z,1.20
2018-04-17T14:22:24.806Z,1.03
2018-04-17T14:24:52.426Z,1.03
2018-04-17T14:27:20.102Z,1.47
2018-04-17T14:29:47.720Z,1.03
2018-04-17T14:32:15.370Z,1.40
2018-04-17T14:34:42.981Z,1.07
2018-04-17T14:37:10.649Z,1.13
2018-04-17T14:39:38.284Z,1.10
2018-04-17T14:42:05.986Z,1.03
2018-04-17T14:44:33.611Z,1.20
2018-04-17T14:47:01.257Z,0.83
2018-04-17T14:49:28.890Z,1.50
2018-04-17T14:51:56.551Z,0.83
2018-04-17T14:54:24.191Z,0.87
2018-04-17T14:56:51.866Z,1.60
2018-04-17T14:59:19.492Z,0.93
2018-04-17T15:01:47.154Z,1.20
2018-04-17T15:04:14.758Z,1.10
2018-04-17T15:06:42.403Z,1.13
2018-04-17T15:09:10.809Z,1.57
2018-04-17T15:11:38.471Z,0.90
2018-04-17T15:14:06.087Z,0.80
2018-04-17T15:16:33.771Z,1.30
2018-04-17T15:19:01.391Z,1.10
2018-04-17T15:21:29.046Z,1.43
2018-04-17T15:23:56.711Z,0.80
2018-04-17T15:26:24.363Z,0.70
2018-04-17T15:28:51.975Z,1.20
2018-04-17T15:31:19.637Z,1.07
2018-04-17T15:33:47.270Z,1.37
2018-04-17T15:36:14.930Z,1.20
2018-04-17T15:38:42.560Z,1.30
2018-04-17T15:41:10.284Z,1.00
2018-04-17T15:43:37.908Z,0.80
2018-04-17T15:46:05.562Z,0.83
2018-04-17T15:48:33.178Z,1.07
2018-04-17T15:51:00.852Z,0.93
2018-04-17T15:53:28.512Z,1.03
2018-04-17T15:55:56.167Z,1.03
2018-04-17T15:58:23.779Z,1.33
2018-04-17T16:00:51.471Z,0.90
2018-04-17T16:03:19.085Z,1.23
2018-04-17T16:05:46.747Z,0.80
2018-04-17T16:08:14.355Z,1.10
2018-04-17T16:10:42.013Z,1.10
2018-04-17T16:13:09.663Z,0.83
2018-04-17T16:15:37.329Z,0.60
2018-04-17T16:18:04.948Z,1.00
2018-04-17T16:20:32.595Z,1.57
2018-04-17T16:23:00.234Z,1.53
2018-04-17T16:25:27.888Z,0.90
2018-04-17T16:27:55.502Z,1.00
2018-04-17T16:30:23.183Z,1.13
2018-04-17T16:32:50.847Z,1.30
2018-04-17T16:35:18.477Z,1.70
2018-04-17T16:37:46.136Z,1.27
2018-04-17T16:40:13.768Z,1.13
2018-04-17T16:42:41.479Z,1.10
2018-04-17T16:45:09.191Z,1.57
2018-04-17T16:47:36.851Z,1.27
2018-04-17T16:50:04.477Z,1.17
2018-04-17T16:52:32.150Z,1.37
2018-04-17T16:54:59.791Z,1.40
2018-04-17T16:57:27.484Z,1.30
2018-04-17T16:59:55.115Z,1.80
2018-04-17T17:02:22.771Z,1.80
2018-04-17T17:04:50.378Z,1.90
2018-04-17T17:07:18.026Z,1.77
2018-04-17T17:09:45.642Z,2.20
2018-04-17T17:12:13.300Z,2.00
2018-04-17T17:14:40.921Z,1.57
2018-04-17T17:17:08.597Z,2.10
2018-04-17T17:19:36.199Z,2.10
2018-04-17T17:22:03.863Z,1.97
2018-04-17T17:24:31.479Z,2.00
2018-04-17T17:26:59.126Z,1.70
2018-04-17T17:29:26.753Z,1.80
2018-04-17T17:31:54.400Z,1.80
2018-04-17T17:34:22.021Z,2.30
2018-04-17T17:36:49.670Z,2.00
2018-04-17T17:39:17.295Z,1.93
2018-04-17T17:41:45.011Z,1.80
2018-04-17T17:44:12.682Z,2.00
2018-04-17T17:46:40.372Z,2.00
2018-04-17T17:49:08.023Z,1.93
2018-04-17T17:51:35.719Z,2.10
2018-04-17T17:54:03.331Z,1.93
2018-04-17T17:56:31.086Z,2.43
2018-04-17T17:58:58.736Z,2.33
2018-04-17T18:01:26.432Z,2.10
2018-04-17T18:03:54.057Z,1.93
2018-04-17T18:06:21.711Z,2.43
2018-04-17T18:08:49.368Z,2.20
2018-04-17T18:11:17.021Z,2.20
2018-04-17T18:13:44.642Z,2.00
2018-04-17T18:16:12.310Z,2.50
2018-04-17T18:18:39.931Z,2.43
2018-04-17T18:21:07.651Z,2.60
2018-04-17T18:23:35.263Z,3.17
2018-04-17T18:26:02.940Z,2.90
2018-04-17T18:28:30.565Z,2.60
2018-04-17T18:30:58.234Z,2.80
2018-04-17T18:33:25.851Z,2.70
2018-04-17T18:35:53.543Z,2.63
2018-04-17T18:38:21.212Z,2.10
2018-04-17T18:40:48.840Z,2.00
2018-04-17T18:43:16.499Z,2.20
2018-04-17T18:45:44.127Z,2.50
2018-04-17T18:48:11.782Z,2.20
2018-04-17T18:50:39.400Z,2.07
2018-04-17T18:53:07.049Z,2.07
2018-04-17T18:55:34.695Z,3.00
2018-04-17T18:58:02.371Z,2.47
2018-04-17T19:00:30.010Z,2.43
2018-04-17T19:02:57.660Z,2.43
2018-04-17T19:05:25.295Z,2.13
2018-04-17T19:07:52.971Z,2.23
2018-04-17T19:10:20.602Z,3.40
2018-04-17T19:12:48.262Z,2.57
2018-04-17T19:15:15.904Z,2.27
2018-04-17T19:17:43.566Z,2.20
2018-04-17T19:20:11.202Z,2.50
2018-04-17T19:22:38.865Z,3.37
2018-04-17T19:25:06.486Z,2.53
2018-04-17T19:27:34.172Z,2.63
2018-04-17T19:30:01.803Z,2.13
2018-04-17T19:32:29.524Z,2.50
2018-04-17T19:34:57.142Z,2.10
2018-04-17T19:37:24.995Z,2.53
2018-04-17T19:39:52.611Z,2.43
2018-04-17T19:42:20.271Z,2.40
2018-04-17T19:44:47.889Z,2.50
2018-04-17T19:47:15.691Z,2.70
2018-04-17T19:49:43.508Z,2.50
2018-04-17T19:52:11.207Z,2.60
2018-04-17T19:54:38.829Z,2.40
2018-04-17T19:57:06.520Z,2.60
2018-04-17T19:59:34.157Z,1.90
2018-04-17T20:02:01.828Z,2.50
2018-04-17T20:04:29.446Z,2.30
2018-04-17T20:06:57.108Z,2.80
2018-04-17T20:09:24.878Z,2.27
2018-04-17T20:11:52.538Z,2.10
2018-04-17T20:14:20.159Z,2.80
2018-04-17T20:16:47.809Z,2.80
2018-04-17T20:19:15.468Z,2.57
2018-04-17T20:21:43.163Z,3.00
2018-04-17T20:24:10.843Z,2.37
2018-04-17T20:26:38.502Z,2.20
2018-04-17T20:29:06.126Z,2.40
2018-04-17T20:31:33.779Z,2.23
2018-04-17T20:34:01.452Z,2.60
2018-04-17T20:36:29.102Z,2.13
2018-04-17T20:38:56.779Z,2.50
2018-04-17T20:41:24.398Z,2.30
2018-04-17T20:43:52.112Z,3.10
2018-04-17T20:46:19.781Z,2.57
2018-04-17T20:48:47.478Z,2.43
2018-04-17T20:51:15.142Z,2.80
2018-04-17T20:53:42.856Z,3.00
2018-04-17T20:56:10.535Z,3.00
2018-04-17T20:58:38.240Z,2.80
2018-04-17T21:01:05.845Z,2.80
2018-04-17T21:03:33.550Z,2.63
2018-04-17T21:06:01.210Z,3.10
2018-04-17T21:08:28.918Z,2.53
2018-04-17T21:10:56.590Z,2.80
2018-04-17T21:13:24.251Z,2.57
2018-04-17T21:15:51.947Z,2.57
2018-04-17T21:18:19.631Z,2.20
2018-04-17T21:20:47.288Z,3.50
2018-04-17T21:23:15.004Z,3.30
2018-04-17T21:25:42.622Z,2.70
2018-04-17T21:28:12.383Z,2.90
2018-04-17T21:30:39.993Z,2.70
2018-04-17T21:33:07.678Z,2.60
2018-04-17T21:35:35.337Z,2.60
2018-04-17T21:38:02.998Z,3.13
2018-04-17T21:40:30.612Z,3.37
2018-04-17T21:42:58.287Z,2.93
2018-04-17T21:45:25.983Z,2.80
2018-04-17T21:47:53.640Z,2.97
2018-04-17T21:50:21.257Z,2.47
2018-04-17T21:52:48.960Z,2.90
2018-04-17T21:55:16.567Z,2.90
2018-04-17T21:57:44.217Z,2.70
2018-04-17T22:00:11.824Z,3.07
2018-04-17T22:02:39.483Z,3.10
2018-04-17T22:05:07.099Z,3.47
2018-04-17T22:07:34.758Z,3.20
2018-04-17T22:10:02.420Z,2.77
2018-04-17T22:12:30.099Z,3.77
2018-04-17T22:14:57.717Z,3.00
2018-04-17T22:17:25.364Z,3.13
2018-04-17T22:19:53.026Z,3.20
2018-04-17T22:22:20.719Z,3.37
2018-04-17T22:24:48.383Z,3.27
2018-04-17T22:27:16.036Z,3.27
2018-04-17T22:29:43.648Z,2.50
2018-04-17T22:32:11.293Z,3.23
2018-04-17T22:34:38.905Z,3.67
2018-04-17T22:37:06.612Z,3.77
2018-04-17T22:39:34.280Z,2.60
2018-04-17T22:42:02.007Z,2.50
2018-04-17T22:44:29.674Z,2.90
2018-04-17T22:46:57.362Z,3.03
2018-04-17T22:49:25.028Z,3.10
2018-04-17T22:51:52.705Z,2.50
2018-04-17T22:54:20.395Z,3.10
2018-04-17T22:56:48.827Z,3.00
2018-04-17T22:59:16.527Z,1.90
2018-04-17T23:01:44.148Z,2.73
2018-04-17T23:04:11.818Z,2.87
2018-04-17T23:06:39.435Z,3.27
2018-04-17T23:09:07.082Z,3.17
2018-04-17T23:11:34.699Z,2.87
2018-04-17T23:14:02.380Z,3.03
2018-04-17T23:16:29.990Z,3.00
2018-04-17T23:18:57.659Z,2.50
2018-04-17T23:21:25.283Z,2.47
2018-04-17T23:23:52.938Z,3.30
2018-04-17T23:26:20.567Z,2.77
2018-04-17T23:28:48.255Z,2.73
2018-04-17T23:31:15.891Z,3.10
2018-04-17T23:33:43.591Z,2.63
2018-04-17T23:36:11.257Z,2.40
2018-04-17T23:38:38.914Z,2.93
2018-04-17T23:41:06.527Z,2.70
2018-04-17T23:43:34.238Z,2.87
2018-04-17T23:46:01.860Z,2.90
2018-04-17T23:48:29.521Z,2.87
2018-04-17T23:50:57.125Z,2.90
2018-04-17T23:53:24.789Z,2.57
2018-04-17T23:55:52.416Z,2.83
2018-04-17T23:58:20.092Z,2.80
